createdAt,value
2023-02-25T00:00:12.664Z,89.83
2023-02-25T00:01:12.640Z,89.83
2023-02-25T00:02:12.660Z,89.83
2023-02-25T00:03:12.635Z,89.94
2023-02-25T00:04:12.633Z,90.04
2023-02-25T00:05:12.593Z,90.19
2023-02-25T00:06:12.577Z,90.29
2023-02-25T00:07:12.642Z,90.39
2023-02-25T00:08:15.073Z,90.50
2023-02-25T00:09:12.541Z,90.60
2023-02-25T00:10:12.535Z,90.70
2023-02-25T00:11:12.559Z,90.81
2023-02-25T00:12:12.504Z,90.81
2023-02-25T00:13:18.431Z,90.91
2023-02-25T00:14:13.501Z,90.91
2023-02-25T00:15:12.476Z,91.02
2023-02-25T00:16:12.458Z,91.12
2023-02-25T00:17:12.517Z,91.22
2023-02-25T00:18:12.467Z,91.33
2023-02-25T00:19:12.477Z,91.43
2023-02-25T00:20:12.443Z,91.43
2023-02-25T00:21:12.418Z,91.43
2023-02-25T00:22:12.397Z,91.43
2023-02-25T00:23:12.565Z,91.43
2023-02-25T00:24:16.984Z,91.33
2023-02-25T00:25:12.407Z,91.12
2023-02-25T00:26:12.348Z,91.02
2023-02-25T00:27:12.344Z,90.91
2023-02-25T00:28:12.331Z,90.81
2023-02-25T00:29:12.331Z,90.70
2023-02-25T00:30:12.381Z,90.66
2023-02-25T00:31:12.365Z,90.66
2023-02-25T00:32:12.477Z,90.66
2023-02-25T00:33:12.310Z,90.66
2023-02-25T00:34:12.272Z,90.56
2023-02-25T00:35:12.264Z,90.45
2023-02-25T00:36:12.259Z,90.45
2023-02-25T00:37:12.285Z,90.45
2023-02-25T00:38:16.113Z,90.35
2023-02-25T00:39:12.234Z,90.35
2023-02-25T00:40:12.210Z,90.39
2023-02-25T00:41:12.214Z,90.39
2023-02-25T00:42:12.175Z,90.39
2023-02-25T00:43:12.174Z,90.39
2023-02-25T00:44:12.160Z,90.29
2023-02-25T00:45:12.175Z,90.29
2023-02-25T00:46:12.169Z,90.39
2023-02-25T00:47:12.124Z,90.39
2023-02-25T00:48:12.103Z,90.39
2023-02-25T00:49:21.171Z,90.29
2023-02-25T00:50:13.091Z,90.29
2023-02-25T00:51:12.075Z,90.29
2023-02-25T00:52:12.066Z,90.19
2023-02-25T00:53:12.055Z,90.08
2023-02-25T00:54:12.897Z,90.08
2023-02-25T00:55:12.055Z,90.19
2023-02-25T00:56:12.030Z,90.19
2023-02-25T00:57:12.005Z,90.19
2023-02-25T00:58:12.001Z,90.19
2023-02-25T00:59:12.041Z,90.19
2023-02-25T01:00:11.988Z,90.08
2023-02-25T01:01:12.012Z,90.08
2023-02-25T01:02:11.955Z,90.19
2023-02-25T01:03:11.970Z,90.29
2023-02-25T01:04:11.924Z,90.29
2023-02-25T01:05:11.955Z,90.39
2023-02-25T01:06:11.937Z,90.29
2023-02-25T01:07:11.917Z,90.29
2023-02-25T01:08:11.922Z,90.29
2023-02-25T01:09:11.921Z,90.19
2023-02-25T01:10:11.854Z,90.19
2023-02-25T01:11:11.897Z,90.08
2023-02-25T01:12:11.853Z,90.08
2023-02-25T01:13:12.000Z,90.08
2023-02-25T01:14:11.918Z,90.08
2023-02-25T01:15:11.838Z,90.08
2023-02-25T01:16:11.953Z,90.08
2023-02-25T01:17:11.812Z,90.08
2023-02-25T01:18:11.771Z,90.08
2023-02-25T01:19:11.777Z,90.19
2023-02-25T01:20:11.750Z,90.19
2023-02-25T01:21:11.739Z,90.19
2023-02-25T01:22:11.852Z,90.19
2023-02-25T01:23:11.715Z,90.19
2023-02-25T01:24:11.756Z,90.19
2023-02-25T01:25:11.691Z,90.19
2023-02-25T01:26:11.692Z,90.19
2023-02-25T01:27:11.798Z,90.19
2023-02-25T01:28:11.680Z,90.29
2023-02-25T01:29:11.656Z,90.29
2023-02-25T01:30:11.697Z,90.29
2023-02-25T01:31:11.772Z,90.19
2023-02-25T01:32:11.886Z,90.19
2023-02-25T01:33:11.601Z,90.19
2023-02-25T01:34:11.583Z,90.08
2023-02-25T01:35:11.581Z,90.08
2023-02-25T01:36:11.588Z,90.19
2023-02-25T01:37:11.553Z,90.29
2023-02-25T01:38:11.550Z,90.29
2023-02-25T01:39:11.600Z,90.39
2023-02-25T01:40:12.545Z,90.39
2023-02-25T01:41:11.522Z,90.44
2023-02-25T01:42:11.513Z,90.64
2023-02-25T01:43:11.498Z,90.75
2023-02-25T01:44:11.485Z,90.85
2023-02-25T01:45:11.510Z,90.95
2023-02-25T01:46:11.516Z,90.95
2023-02-25T01:47:11.465Z,90.95
2023-02-25T01:48:11.445Z,90.95
2023-02-25T01:49:11.430Z,90.95
2023-02-25T01:50:11.426Z,90.95
2023-02-25T01:51:11.431Z,90.95
2023-02-25T01:52:11.439Z,90.95
2023-02-25T01:53:11.397Z,91.06
2023-02-25T01:54:11.381Z,91.06
2023-02-25T01:55:11.366Z,90.95
2023-02-25T01:56:11.364Z,91.06
2023-02-25T01:57:11.366Z,91.06
2023-02-25T01:58:11.347Z,90.95
2023-02-25T01:59:11.318Z,90.95
2023-02-25T02:00:11.325Z,90.95
2023-02-25T02:01:11.361Z,90.85
2023-02-25T02:02:11.319Z,90.75
2023-02-25T02:03:11.278Z,90.75
2023-02-25T02:04:11.284Z,90.75
2023-02-25T02:05:11.309Z,90.75
2023-02-25T02:06:11.258Z,90.75
2023-02-25T02:07:11.233Z,90.75
2023-02-25T02:08:11.219Z,90.75
2023-02-25T02:09:11.211Z,90.64
2023-02-25T02:10:11.206Z,90.64
2023-02-25T02:11:12.235Z,90.54
2023-02-25T02:12:11.187Z,90.64
2023-02-25T02:13:11.181Z,90.64
2023-02-25T02:14:11.149Z,90.75
2023-02-25T02:15:11.146Z,90.75
2023-02-25T02:16:11.175Z,90.64
2023-02-25T02:17:11.151Z,90.64
2023-02-25T02:18:11.125Z,90.54
2023-02-25T02:19:11.091Z,90.64
2023-02-25T02:20:11.085Z,90.54
2023-02-25T02:21:11.084Z,90.54
2023-02-25T02:22:11.093Z,90.54
2023-02-25T02:23:11.063Z,90.54
2023-02-25T02:24:11.051Z,90.54
2023-02-25T02:25:11.080Z,90.54
2023-02-25T02:26:11.032Z,90.44
2023-02-25T02:27:11.009Z,90.44
2023-02-25T02:28:10.998Z,90.44
2023-02-25T02:29:11.004Z,90.44
2023-02-25T02:30:11.931Z,90.54
2023-02-25T02:31:11.170Z,90.54
2023-02-25T02:32:11.076Z,90.58
2023-02-25T02:33:10.941Z,90.58
2023-02-25T02:34:10.937Z,90.69
2023-02-25T02:35:10.924Z,90.64
2023-02-25T02:36:11.904Z,90.64
2023-02-25T02:37:10.934Z,90.64
2023-02-25T02:38:10.882Z,90.64
2023-02-25T02:39:10.878Z,90.64
2023-02-25T02:40:10.868Z,90.64
2023-02-25T02:41:10.850Z,90.54
2023-02-25T02:42:10.837Z,90.54
2023-02-25T02:43:10.846Z,90.54
2023-02-25T02:44:10.814Z,90.54
2023-02-25T02:45:10.803Z,90.54
2023-02-25T02:46:10.869Z,90.54
2023-02-25T02:47:12.768Z,90.58
2023-02-25T02:48:10.793Z,90.58
2023-02-25T02:49:10.769Z,90.58
2023-02-25T02:50:10.776Z,90.54
2023-02-25T02:51:10.769Z,90.64
2023-02-25T02:52:10.722Z,90.64
2023-02-25T02:53:10.737Z,90.64
2023-02-25T02:54:10.747Z,90.64
2023-02-25T02:55:10.700Z,90.54
2023-02-25T02:56:10.681Z,90.44
2023-02-25T02:57:11.116Z,90.44
2023-02-25T02:58:12.118Z,90.44
2023-02-25T02:59:10.670Z,90.44
2023-02-25T03:00:10.671Z,90.33
2023-02-25T03:01:10.713Z,90.33
2023-02-25T03:02:10.631Z,90.23
2023-02-25T03:03:10.601Z,90.23
2023-02-25T03:04:10.656Z,90.23
2023-02-25T03:05:10.747Z,90.23
2023-02-25T03:06:10.576Z,90.23
2023-02-25T03:07:10.597Z,90.33
2023-02-25T03:08:10.854Z,90.33
2023-02-25T03:09:10.558Z,90.33
2023-02-25T03:10:10.522Z,90.23
2023-02-25T03:11:10.540Z,90.23
2023-02-25T03:12:10.510Z,90.23
2023-02-25T03:13:10.507Z,90.23
2023-02-25T03:14:10.502Z,90.12
2023-02-25T03:15:10.479Z,90.23
2023-02-25T03:16:10.503Z,90.23
2023-02-25T03:17:11.422Z,90.23
2023-02-25T03:18:10.429Z,90.23
2023-02-25T03:19:10.420Z,90.23
2023-02-25T03:20:10.431Z,90.23
2023-02-25T03:21:10.406Z,90.33
2023-02-25T03:22:11.449Z,90.33
2023-02-25T03:23:10.500Z,90.33
2023-02-25T03:24:10.372Z,90.33
2023-02-25T03:25:10.515Z,90.33
2023-02-25T03:26:10.349Z,90.33
2023-02-25T03:27:10.336Z,90.44
2023-02-25T03:28:11.133Z,90.33
2023-02-25T03:29:10.491Z,90.33
2023-02-25T03:30:10.314Z,90.33
2023-02-25T03:31:11.690Z,90.33
2023-02-25T03:32:10.381Z,90.33
2023-02-25T03:33:10.287Z,90.33
2023-02-25T03:34:11.060Z,90.33
2023-02-25T03:35:10.256Z,90.33
2023-02-25T03:36:11.711Z,90.23
2023-02-25T03:37:11.761Z,90.23
2023-02-25T03:38:10.345Z,90.23
2023-02-25T03:39:11.666Z,90.23
2023-02-25T03:40:10.333Z,90.12
2023-02-25T03:41:10.190Z,90.12
2023-02-25T03:42:10.173Z,90.02
2023-02-25T03:43:10.542Z,90.02
2023-02-25T03:44:10.200Z,90.02
2023-02-25T03:45:10.146Z,89.92
2023-02-25T03:46:10.182Z,89.92
2023-02-25T03:47:10.123Z,89.81
2023-02-25T03:48:11.197Z,89.71
2023-02-25T03:49:10.100Z,89.71
2023-02-25T03:50:10.348Z,89.61
2023-02-25T03:51:10.104Z,89.61
2023-02-25T03:52:10.063Z,89.71
2023-02-25T03:53:10.743Z,89.71
2023-02-25T03:54:10.046Z,89.71
2023-02-25T03:55:10.057Z,89.61
2023-02-25T03:56:10.216Z,89.61
2023-02-25T03:57:11.466Z,89.61
2023-02-25T03:58:10.022Z,89.50
2023-02-25T03:59:10.221Z,89.50
2023-02-25T04:00:10.818Z,89.50
2023-02-25T04:01:09.973Z,89.50
2023-02-25T04:02:09.962Z,89.40
2023-02-25T04:03:10.009Z,89.40
2023-02-25T04:04:09.948Z,89.19
2023-02-25T04:05:09.921Z,89.19
2023-02-25T04:06:09.925Z,89.19
2023-02-25T04:07:09.904Z,89.19
2023-02-25T04:08:10.733Z,89.19
2023-02-25T04:09:09.868Z,89.19
2023-02-25T04:10:09.865Z,89.19
2023-02-25T04:11:11.570Z,89.19
2023-02-25T04:12:09.836Z,89.29
2023-02-25T04:13:09.836Z,89.40
2023-02-25T04:14:09.869Z,89.29
2023-02-25T04:15:09.814Z,89.40
2023-02-25T04:16:09.891Z,89.29
2023-02-25T04:17:09.798Z,89.29
2023-02-25T04:18:09.779Z,89.29
2023-02-25T04:19:09.782Z,89.29
2023-02-25T04:20:09.790Z,89.40
2023-02-25T04:21:09.739Z,89.40
2023-02-25T04:22:10.684Z,89.40
2023-02-25T04:23:09.707Z,89.50
2023-02-25T04:24:09.764Z,89.50
2023-02-25T04:25:09.682Z,89.50
2023-02-25T04:26:09.722Z,89.50
2023-02-25T04:27:09.668Z,89.61
2023-02-25T04:28:09.687Z,89.61
2023-02-25T04:29:09.657Z,89.61
2023-02-25T04:30:09.665Z,89.71
2023-02-25T04:31:09.716Z,89.61
2023-02-25T04:32:09.844Z,89.61
2023-02-25T04:33:09.632Z,89.61
2023-02-25T04:34:09.602Z,89.61
2023-02-25T04:35:09.579Z,89.61
2023-02-25T04:36:09.574Z,89.61
2023-02-25T04:37:09.572Z,89.71
2023-02-25T04:38:09.562Z,89.81
2023-02-25T04:39:09.547Z,89.92
2023-02-25T04:40:09.543Z,89.92
2023-02-25T04:41:09.526Z,89.92
2023-02-25T04:42:09.512Z,89.92
2023-02-25T04:43:09.525Z,89.92
2023-02-25T04:44:09.496Z,89.81
2023-02-25T04:45:09.858Z,89.81
2023-02-25T04:46:09.511Z,89.92
2023-02-25T04:47:09.478Z,89.81
2023-02-25T04:48:10.436Z,89.81
2023-02-25T04:49:09.448Z,89.81
2023-02-25T04:50:09.432Z,89.81
2023-02-25T04:51:09.411Z,89.81
2023-02-25T04:52:09.394Z,89.81
2023-02-25T04:53:09.417Z,89.81
2023-02-25T04:54:09.414Z,89.71
2023-02-25T04:55:09.358Z,89.71
2023-02-25T04:56:09.798Z,89.71
2023-02-25T04:57:09.329Z,89.71
2023-02-25T04:58:09.333Z,89.71
2023-02-25T04:59:10.793Z,89.71
2023-02-25T05:00:09.343Z,89.81
2023-02-25T05:01:09.301Z,89.81
2023-02-25T05:02:09.360Z,89.81
2023-02-25T05:03:09.279Z,89.81
2023-02-25T05:04:09.329Z,89.81
2023-02-25T05:05:09.311Z,89.81
2023-02-25T05:06:09.251Z,89.81
2023-02-25T05:07:09.229Z,89.77
2023-02-25T05:08:09.231Z,89.71
2023-02-25T05:09:10.421Z,89.71
2023-02-25T05:10:09.232Z,89.71
2023-02-25T05:11:09.180Z,89.71
2023-02-25T05:12:09.209Z,89.81
2023-02-25T05:13:09.162Z,89.81
2023-02-25T05:14:09.242Z,89.81
2023-02-25T05:15:09.149Z,89.92
2023-02-25T05:16:09.219Z,89.92
2023-02-25T05:17:09.151Z,89.92
2023-02-25T05:18:09.139Z,89.92
2023-02-25T05:19:09.097Z,89.92
2023-02-25T05:20:09.257Z,89.92
2023-02-25T05:21:09.074Z,89.92
2023-02-25T05:22:09.099Z,89.92
2023-02-25T05:23:09.333Z,89.92
2023-02-25T05:24:09.155Z,89.92
2023-02-25T05:25:09.048Z,90.02
2023-02-25T05:26:09.035Z,90.02
2023-02-25T05:27:09.105Z,90.02
2023-02-25T05:28:09.104Z,90.02
2023-02-25T05:29:08.976Z,90.02
2023-02-25T05:30:09.049Z,90.02
2023-02-25T05:31:10.030Z,90.02
2023-02-25T05:32:09.152Z,90.02
2023-02-25T05:33:08.990Z,90.12
2023-02-25T05:34:08.970Z,90.12
2023-02-25T05:35:08.917Z,90.23
2023-02-25T05:36:08.911Z,90.23
2023-02-25T05:37:08.914Z,90.23
2023-02-25T05:38:08.880Z,90.33
2023-02-25T05:39:08.896Z,90.33
2023-02-25T05:40:08.925Z,90.33
2023-02-25T05:41:08.867Z,90.44
2023-02-25T05:42:08.852Z,90.44
2023-02-25T05:43:08.866Z,90.44
2023-02-25T05:44:08.834Z,90.44
2023-02-25T05:45:09.202Z,90.44
2023-02-25T05:46:09.169Z,90.44
2023-02-25T05:47:09.517Z,90.33
2023-02-25T05:48:09.739Z,90.33
2023-02-25T05:49:08.764Z,90.33
2023-02-25T05:50:09.793Z,90.23
2023-02-25T05:51:08.822Z,90.23
2023-02-25T05:52:08.764Z,90.12
2023-02-25T05:53:08.743Z,90.02
2023-02-25T05:54:08.752Z,90.02
2023-02-25T05:55:10.262Z,90.02
2023-02-25T05:56:08.706Z,89.92
2023-02-25T05:57:08.723Z,89.92
2023-02-25T05:58:09.620Z,89.92
2023-02-25T05:59:09.601Z,89.81
2023-02-25T06:00:08.646Z,89.81
2023-02-25T06:01:08.619Z,89.81
2023-02-25T06:02:08.716Z,89.71
2023-02-25T06:03:08.665Z,89.71
2023-02-25T06:04:08.597Z,89.61
2023-02-25T06:05:08.601Z,89.61
2023-02-25T06:06:08.583Z,89.71
2023-02-25T06:07:08.577Z,89.61
2023-02-25T06:08:08.583Z,89.61
2023-02-25T06:09:08.605Z,89.61
2023-02-25T06:10:08.543Z,89.40
2023-02-25T06:11:08.536Z,89.40
2023-02-25T06:12:08.502Z,89.40
2023-02-25T06:13:09.490Z,89.40
2023-02-25T06:14:08.508Z,89.50
2023-02-25T06:15:08.483Z,89.50
2023-02-25T06:16:08.591Z,89.40
2023-02-25T06:17:09.388Z,89.50
2023-02-25T06:18:08.478Z,89.40
2023-02-25T06:19:08.435Z,89.40
2023-02-25T06:20:08.422Z,89.40
2023-02-25T06:21:08.464Z,89.40
2023-02-25T06:22:08.393Z,89.29
2023-02-25T06:23:08.387Z,89.29
2023-02-25T06:24:08.391Z,89.29
2023-02-25T06:25:08.368Z,89.40
2023-02-25T06:26:09.038Z,89.29
2023-02-25T06:27:08.334Z,89.29
2023-02-25T06:28:08.318Z,89.29
2023-02-25T06:29:08.345Z,89.19
2023-02-25T06:30:08.317Z,89.19
2023-02-25T06:31:08.399Z,89.19
2023-02-25T06:32:08.404Z,89.19
2023-02-25T06:33:08.264Z,89.19
2023-02-25T06:34:08.314Z,89.19
2023-02-25T06:35:08.296Z,89.19
2023-02-25T06:36:08.260Z,89.09
2023-02-25T06:37:08.365Z,89.09
2023-02-25T06:38:08.284Z,88.98
2023-02-25T06:39:08.195Z,88.98
2023-02-25T06:40:08.208Z,88.98
2023-02-25T06:41:08.975Z,88.98
2023-02-25T06:42:08.197Z,88.98
2023-02-25T06:43:08.168Z,88.98
2023-02-25T06:44:08.188Z,88.88
2023-02-25T06:45:08.161Z,88.78
2023-02-25T06:46:08.182Z,88.78
2023-02-25T06:47:08.128Z,88.88
2023-02-25T06:48:08.110Z,88.84
2023-02-25T06:49:08.095Z,88.84
2023-02-25T06:50:08.102Z,88.84
2023-02-25T06:51:08.065Z,88.73
2023-02-25T06:52:08.100Z,88.78
2023-02-25T06:53:08.057Z,88.78
2023-02-25T06:54:08.060Z,88.78
2023-02-25T06:55:08.020Z,88.84
2023-02-25T06:56:08.086Z,88.88
2023-02-25T06:57:08.056Z,88.84
2023-02-25T06:58:08.083Z,88.94
2023-02-25T06:59:07.979Z,88.94
2023-02-25T07:00:07.983Z,88.84
2023-02-25T07:01:08.046Z,88.73
2023-02-25T07:02:07.993Z,88.63
2023-02-25T07:03:07.919Z,88.67
2023-02-25T07:04:08.002Z,88.67
2023-02-25T07:05:07.936Z,88.67
2023-02-25T07:06:07.948Z,88.78
2023-02-25T07:07:07.895Z,88.78
2023-02-25T07:08:08.894Z,88.78
2023-02-25T07:09:07.867Z,88.88
2023-02-25T07:10:07.875Z,88.88
2023-02-25T07:11:07.843Z,88.88
2023-02-25T07:12:07.862Z,88.88
2023-02-25T07:13:07.818Z,88.88
2023-02-25T07:14:07.846Z,88.88
2023-02-25T07:15:07.802Z,88.88
2023-02-25T07:16:07.869Z,88.78
2023-02-25T07:17:07.778Z,88.78
2023-02-25T07:18:07.814Z,88.78
2023-02-25T07:19:07.755Z,88.78
2023-02-25T07:20:07.899Z,88.78
2023-02-25T07:21:07.742Z,88.78
2023-02-25T07:22:07.729Z,88.88
2023-02-25T07:23:07.708Z,88.84
2023-02-25T07:24:07.745Z,88.84
2023-02-25T07:25:07.794Z,88.84
2023-02-25T07:26:07.695Z,88.73
2023-02-25T07:27:07.675Z,88.63
2023-02-25T07:28:07.680Z,88.42
2023-02-25T07:29:07.639Z,88.42
2023-02-25T07:30:07.706Z,88.42
2023-02-25T07:31:07.693Z,88.53
2023-02-25T07:32:08.763Z,88.63
2023-02-25T07:33:07.669Z,88.84
2023-02-25T07:34:07.606Z,89.04
2023-02-25T07:35:07.645Z,89.25
2023-02-25T07:36:07.569Z,89.46
2023-02-25T07:37:07.565Z,89.67
2023-02-25T07:38:07.669Z,89.87
2023-02-25T07:39:07.568Z,90.08
2023-02-25T07:40:07.662Z,90.19
2023-02-25T07:41:07.793Z,90.19
2023-02-25T07:42:07.722Z,90.08
2023-02-25T07:43:07.601Z,90.19
2023-02-25T07:44:07.538Z,90.08
2023-02-25T07:45:07.477Z,89.98
2023-02-25T07:46:08.561Z,89.94
2023-02-25T07:47:07.475Z,89.94
2023-02-25T07:48:07.464Z,89.83
2023-02-25T07:49:07.443Z,89.83
2023-02-25T07:50:07.509Z,89.62
2023-02-25T07:51:08.405Z,89.31
2023-02-25T07:52:07.380Z,89.00
2023-02-25T07:53:07.409Z,88.90
2023-02-25T07:54:07.544Z,88.90
2023-02-25T07:55:07.401Z,88.79
2023-02-25T07:56:07.405Z,88.69
2023-02-25T07:57:07.332Z,88.69
2023-02-25T07:58:07.666Z,88.59
2023-02-25T07:59:07.388Z,88.59
2023-02-25T08:00:07.445Z,88.59
2023-02-25T08:01:07.321Z,88.59
2023-02-25T08:02:07.318Z,88.59
2023-02-25T08:03:08.279Z,88.59
2023-02-25T08:04:07.324Z,88.59
2023-02-25T08:05:07.303Z,88.48
2023-02-25T08:06:07.283Z,88.59
2023-02-25T08:07:07.263Z,88.59
2023-02-25T08:08:07.239Z,88.69
2023-02-25T08:09:07.239Z,88.69
2023-02-25T08:10:07.395Z,88.79
2023-02-25T08:11:07.206Z,88.79
2023-02-25T08:12:07.206Z,88.90
2023-02-25T08:13:07.169Z,89.11
2023-02-25T08:14:07.156Z,89.31
2023-02-25T08:15:07.135Z,89.52
2023-02-25T08:16:07.258Z,89.73
2023-02-25T08:17:07.153Z,89.83
2023-02-25T08:18:07.132Z,90.04
2023-02-25T08:19:08.252Z,90.25
2023-02-25T08:20:07.159Z,90.35
2023-02-25T08:21:07.107Z,90.60
2023-02-25T08:22:07.086Z,90.70
2023-02-25T08:23:07.037Z,91.02
2023-02-25T08:24:07.079Z,91.22
2023-02-25T08:25:07.586Z,91.33
2023-02-25T08:26:07.086Z,91.43
2023-02-25T08:27:07.012Z,91.43
2023-02-25T08:28:07.042Z,91.64
2023-02-25T08:29:07.047Z,91.74
2023-02-25T08:30:06.982Z,91.95
2023-02-25T08:31:07.127Z,91.95
2023-02-25T08:32:07.096Z,92.05
2023-02-25T08:33:08.006Z,91.95
2023-02-25T08:34:07.973Z,91.85
2023-02-25T08:35:07.089Z,91.85
2023-02-25T08:36:06.926Z,91.85
2023-02-25T08:37:06.897Z,91.80
2023-02-25T08:38:06.898Z,91.91
2023-02-25T08:39:06.879Z,91.91
2023-02-25T08:40:06.865Z,91.91
2023-02-25T08:41:07.705Z,92.01
2023-02-25T08:42:06.839Z,92.01
2023-02-25T08:43:06.846Z,92.01
2023-02-25T08:44:06.830Z,91.97
2023-02-25T08:45:06.838Z,91.97
2023-02-25T08:46:06.867Z,91.97
2023-02-25T08:47:07.666Z,91.86
2023-02-25T08:48:06.782Z,91.66
2023-02-25T08:49:06.823Z,91.45
2023-02-25T08:50:06.774Z,91.35
2023-02-25T08:51:06.745Z,91.24
2023-02-25T08:52:07.537Z,91.03
2023-02-25T08:53:06.724Z,90.83
2023-02-25T08:54:06.827Z,90.68
2023-02-25T08:55:06.741Z,90.58
2023-02-25T08:56:06.913Z,90.47
2023-02-25T08:57:06.748Z,90.47
2023-02-25T08:58:06.662Z,90.16
2023-02-25T08:59:06.713Z,90.06
2023-02-25T09:00:06.908Z,89.86
2023-02-25T09:01:06.702Z,89.71
2023-02-25T09:02:06.616Z,89.50
2023-02-25T09:03:06.783Z,89.40
2023-02-25T09:04:07.020Z,89.40
2023-02-25T09:05:08.053Z,89.40
2023-02-25T09:06:06.571Z,89.46
2023-02-25T09:07:06.929Z,89.46
2023-02-25T09:08:06.549Z,89.15
2023-02-25T09:09:06.535Z,88.84
2023-02-25T09:10:10.393Z,88.53
2023-02-25T09:11:06.663Z,88.32
2023-02-25T09:12:06.641Z,88.22
2023-02-25T09:13:06.533Z,88.12
2023-02-25T09:14:11.758Z,88.01
2023-02-25T09:15:06.577Z,87.91
2023-02-25T09:16:06.562Z,87.81
2023-02-25T09:17:06.568Z,87.91
2023-02-25T09:18:06.580Z,87.91
2023-02-25T09:19:06.527Z,87.91
2023-02-25T09:20:06.575Z,87.70
2023-02-25T09:21:06.531Z,87.49
2023-02-25T09:22:06.449Z,87.39
2023-02-25T09:23:07.562Z,87.39
2023-02-25T09:24:06.554Z,87.29
2023-02-25T09:25:06.397Z,87.18
2023-02-25T09:26:07.573Z,87.02
2023-02-25T09:27:06.356Z,86.91
2023-02-25T09:28:06.504Z,86.88
2023-02-25T09:29:06.366Z,86.88
2023-02-25T09:30:06.445Z,86.77
2023-02-25T09:31:06.414Z,86.67
2023-02-25T09:32:06.694Z,86.57
2023-02-25T09:33:06.438Z,86.46
2023-02-25T09:34:07.205Z,86.36
2023-02-25T09:35:07.367Z,86.21
2023-02-25T09:36:07.272Z,86.11
2023-02-25T09:37:06.222Z,85.80
2023-02-25T09:38:06.268Z,85.60
2023-02-25T09:39:06.551Z,85.49
2023-02-25T09:40:06.203Z,85.49
2023-02-25T09:41:06.221Z,85.60
2023-02-25T09:42:06.179Z,85.60
2023-02-25T09:43:06.512Z,85.60
2023-02-25T09:44:06.381Z,85.60
2023-02-25T09:45:06.552Z,85.80
2023-02-25T09:46:07.677Z,86.01
2023-02-25T09:47:06.424Z,86.21
2023-02-25T09:48:06.931Z,86.63
2023-02-25T09:49:06.106Z,86.52
2023-02-25T09:50:06.096Z,86.42
2023-02-25T09:51:06.136Z,86.25
2023-02-25T09:52:07.052Z,86.36
2023-02-25T09:53:07.711Z,86.46
2023-02-25T09:54:08.297Z,86.60
2023-02-25T09:55:06.524Z,86.91
2023-02-25T09:56:06.813Z,87.23
2023-02-25T09:57:06.494Z,87.54
2023-02-25T09:58:06.045Z,87.85
2023-02-25T09:59:06.205Z,88.26
2023-02-25T10:00:06.065Z,88.61
2023-02-25T10:01:07.415Z,88.82
2023-02-25T10:02:06.101Z,89.13
2023-02-25T10:03:06.013Z,89.34
2023-02-25T10:04:05.985Z,89.75
2023-02-25T10:05:06.033Z,90.06
2023-02-25T10:06:05.978Z,90.26
2023-02-25T10:07:05.939Z,90.62
2023-02-25T10:08:05.922Z,90.93
2023-02-25T10:09:05.876Z,91.03
2023-02-25T10:10:05.868Z,91.28
2023-02-25T10:11:05.852Z,91.49
2023-02-25T10:12:05.858Z,91.70
2023-02-25T10:13:06.154Z,91.91
2023-02-25T10:14:05.830Z,92.22
2023-02-25T10:15:05.803Z,92.43
2023-02-25T10:16:05.827Z,92.63
2023-02-25T10:17:05.888Z,92.78
2023-02-25T10:18:05.807Z,92.78
2023-02-25T10:19:05.764Z,92.68
2023-02-25T10:20:06.574Z,92.57
2023-02-25T10:21:05.809Z,92.61
2023-02-25T10:22:07.185Z,92.61
2023-02-25T10:23:07.195Z,92.61
2023-02-25T10:24:06.005Z,92.72
2023-02-25T10:25:05.701Z,92.72
2023-02-25T10:26:05.837Z,92.72
2023-02-25T10:27:06.574Z,92.93
2023-02-25T10:28:05.676Z,93.18
2023-02-25T10:29:05.652Z,93.33
2023-02-25T10:30:07.608Z,93.59
2023-02-25T10:31:06.056Z,93.70
2023-02-25T10:32:06.392Z,93.80
2023-02-25T10:33:06.662Z,93.85
2023-02-25T10:34:07.056Z,93.96
2023-02-25T10:35:07.026Z,94.06
2023-02-25T10:36:06.544Z,94.06
2023-02-25T10:37:05.596Z,94.27
2023-02-25T10:38:06.383Z,94.37
2023-02-25T10:39:07.018Z,94.48
2023-02-25T10:40:06.994Z,94.58
2023-02-25T10:41:05.513Z,94.68
2023-02-25T10:42:06.352Z,94.74
2023-02-25T10:43:06.382Z,94.74
2023-02-25T10:44:06.935Z,94.85
2023-02-25T10:45:05.620Z,94.95
2023-02-25T10:46:05.502Z,94.95
2023-02-25T10:47:05.568Z,95.01
2023-02-25T10:48:05.434Z,95.01
2023-02-25T10:49:06.257Z,95.01
2023-02-25T10:50:07.386Z,95.01
2023-02-25T10:51:06.254Z,94.97
2023-02-25T10:52:06.847Z,95.07
2023-02-25T10:53:05.496Z,95.18
2023-02-25T10:54:07.352Z,95.14
2023-02-25T10:55:05.506Z,95.14
2023-02-25T10:56:06.817Z,95.14
2023-02-25T10:57:05.440Z,95.14
2023-02-25T10:58:05.531Z,95.09
2023-02-25T10:59:05.316Z,95.09
2023-02-25T11:00:05.447Z,95.09
2023-02-25T11:01:05.412Z,95.04
2023-02-25T11:02:05.300Z,95.04
2023-02-25T11:03:05.432Z,94.90
2023-02-25T11:04:05.409Z,94.79
2023-02-25T11:05:06.686Z,94.69
2023-02-25T11:06:06.225Z,94.44
2023-02-25T11:07:06.680Z,94.23
2023-02-25T11:08:06.198Z,93.98
2023-02-25T11:09:06.477Z,93.68
2023-02-25T11:10:06.027Z,93.26
2023-02-25T11:11:05.201Z,92.64
2023-02-25T11:12:05.441Z,91.92
2023-02-25T11:13:05.161Z,90.99
2023-02-25T11:14:06.636Z,89.86
2023-02-25T11:15:06.595Z,88.92
2023-02-25T11:16:05.682Z,88.20
2023-02-25T11:17:07.241Z,87.17
2023-02-25T11:18:05.162Z,86.44
2023-02-25T11:19:05.255Z,85.55
2023-02-25T11:20:05.160Z,84.83
2023-02-25T11:21:05.158Z,84.73
2023-02-25T11:22:06.003Z,84.83
2023-02-25T11:23:05.097Z,84.63
2023-02-25T11:24:05.066Z,84.42
2023-02-25T11:25:05.242Z,84.42
2023-02-25T11:26:06.263Z,84.48
2023-02-25T11:27:05.048Z,84.59
2023-02-25T11:28:05.024Z,84.59
2023-02-25T11:29:06.429Z,84.34
2023-02-25T11:30:05.925Z,84.13
2023-02-25T11:31:06.526Z,83.78
2023-02-25T11:32:06.014Z,83.68
2023-02-25T11:33:07.373Z,83.64
2023-02-25T11:34:06.102Z,83.23
2023-02-25T11:35:05.193Z,83.13
2023-02-25T11:36:06.355Z,82.98
2023-02-25T11:37:07.749Z,82.89
2023-02-25T11:38:05.129Z,82.43
2023-02-25T11:39:06.314Z,81.92
2023-02-25T11:40:05.693Z,81.20
2023-02-25T11:41:06.284Z,80.37
2023-02-25T11:42:05.759Z,79.44
2023-02-25T11:43:06.286Z,78.41
2023-02-25T11:44:04.831Z,77.48
2023-02-25T11:45:04.822Z,77.08
2023-02-25T11:46:06.582Z,76.76
2023-02-25T11:47:04.813Z,75.84
2023-02-25T11:48:04.897Z,75.94
2023-02-25T11:49:04.758Z,75.46
2023-02-25T11:50:05.737Z,75.53
2023-02-25T11:51:05.537Z,76.35
2023-02-25T11:52:04.743Z,76.56
2023-02-25T11:53:06.165Z,76.35
2023-02-25T11:54:04.716Z,74.80
2023-02-25T11:55:04.705Z,74.08
2023-02-25T11:56:04.687Z,74.50
2023-02-25T11:57:04.733Z,74.91
2023-02-25T11:58:06.123Z,75.39
2023-02-25T11:59:04.640Z,75.49
2023-02-25T12:00:04.706Z,75.60
2023-02-25T12:01:04.707Z,74.46
2023-02-25T12:02:04.656Z,73.23
2023-02-25T12:03:05.328Z,72.78
2023-02-25T12:04:05.537Z,72.99
2023-02-25T12:05:04.609Z,73.09
2023-02-25T12:06:04.649Z,73.19
2023-02-25T12:07:04.595Z,73.09
2023-02-25T12:08:13.334Z,72.47
2023-02-25T12:09:06.415Z,71.96
2023-02-25T12:10:05.635Z,71.44
2023-02-25T12:11:04.603Z,70.72
2023-02-25T12:12:04.587Z,70.52
2023-02-25T12:13:04.697Z,70.52
2023-02-25T12:14:04.476Z,70.52
2023-02-25T12:15:04.486Z,70.83
2023-02-25T12:16:04.672Z,69.79
2023-02-25T12:17:04.439Z,69.11
2023-02-25T12:18:06.020Z,68.59
2023-02-25T12:19:04.619Z,68.83
2023-02-25T12:20:04.427Z,68.83
2023-02-25T12:21:05.495Z,68.86
2023-02-25T12:22:04.489Z,68.76
2023-02-25T12:23:04.378Z,69.38
2023-02-25T12:24:04.379Z,71.85
2023-02-25T12:25:04.635Z,72.67
2023-02-25T12:26:05.136Z,72.44
2023-02-25T12:27:04.411Z,71.51
2023-02-25T12:28:06.273Z,71.89
2023-02-25T12:29:05.822Z,71.89
2023-02-25T12:30:04.777Z,72.27
2023-02-25T12:31:04.568Z,72.88
2023-02-25T12:32:05.246Z,72.24
2023-02-25T12:33:04.291Z,72.75
2023-02-25T12:34:04.435Z,72.20
2023-02-25T12:35:04.232Z,70.45
2023-02-25T12:36:04.251Z,70.21
2023-02-25T12:37:04.261Z,69.49
2023-02-25T12:38:04.235Z,69.87
2023-02-25T12:39:04.485Z,70.76
2023-02-25T12:40:04.183Z,69.50
2023-02-25T12:41:04.175Z,68.13
2023-02-25T12:42:04.176Z,66.70
2023-02-25T12:43:04.205Z,66.28
2023-02-25T12:44:04.174Z,65.39
2023-02-25T12:45:05.586Z,65.29
2023-02-25T12:46:04.181Z,66.11
2023-02-25T12:47:05.556Z,65.16
2023-02-25T12:48:05.560Z,64.03
2023-02-25T12:49:04.156Z,63.69
2023-02-25T12:50:04.088Z,63.05
2023-02-25T12:51:04.079Z,63.05
2023-02-25T12:52:05.107Z,64.10